createdAt,value
2023-04-05T00:00:19.267Z,11.33
2023-04-05T00:05:30.058Z,11.17
2023-04-05T00:10:34.853Z,9.57
2023-04-05T00:15:38.087Z,9.43
2023-04-05T00:20:41.603Z,12.80
2023-04-05T00:25:46.300Z,10.87
2023-04-05T00:30:52.428Z,13.47
2023-04-05T00:35:55.433Z,12.57
2023-04-05T00:40:59.711Z,11.20
2023-04-05T00:46:03.285Z,12.13
2023-04-05T00:51:09.622Z,13.37
2023-04-05T00:56:14.851Z,12.20
2023-04-05T01:01:20.389Z,15.47
2023-04-05T01:06:33.090Z,9.87
2023-04-05T01:11:40.528Z,12.43
2023-04-05T01:16:43.652Z,13.03
2023-04-05T01:22:17.004Z,11.47
2023-04-05T01:27:29.471Z,10.90
2023-04-05T01:32:45.205Z,11.10
2023-04-05T01:37:56.874Z,9.93
2023-04-05T01:43:03.044Z,8.97
2023-04-05T01:48:08.068Z,9.67
2023-04-05T01:53:11.410Z,12.33
2023-04-05T01:58:14.567Z,10.27
2023-04-05T02:03:18.990Z,10.70
2023-04-05T02:08:21.989Z,11.30
2023-04-05T02:13:25.912Z,10.53
2023-04-05T02:18:31.970Z,12.70
2023-04-05T02:23:36.091Z,14.87
2023-04-05T02:28:39.092Z,12.40
2023-04-05T02:33:43.910Z,9.57
2023-04-05T02:38:46.869Z,11.27
2023-04-05T02:43:52.223Z,12.10
2023-04-05T02:48:56.570Z,12.87
2023-04-05T02:54:03.456Z,13.13
2023-04-05T02:59:11.549Z,11.30
2023-04-05T03:04:17.399Z,13.20
2023-04-05T03:09:20.895Z,14.90
2023-04-05T03:14:30.120Z,13.43
2023-04-05T03:19:35.831Z,12.67
2023-04-05T03:25:00.904Z,11.43
2023-04-05T03:30:04.171Z,13.77
2023-04-05T03:35:13.373Z,11.10
2023-04-05T03:40:20.782Z,12.43
2023-04-05T03:45:25.173Z,11.23
2023-04-05T03:50:32.030Z,10.77
2023-04-05T03:55:35.023Z,11.50
2023-04-05T04:00:41.870Z,15.20
2023-04-05T04:05:57.211Z,14.47
2023-04-05T04:11:00.504Z,10.20
2023-04-05T04:16:07.237Z,13.10
2023-04-05T04:21:35.905Z,11.13
2023-04-05T04:26:49.048Z,12.50
2023-04-05T04:32:26.905Z,12.00
2023-04-05T04:37:53.701Z,11.00
2023-04-05T04:43:18.181Z,16.20
2023-04-05T04:48:53.449Z,13.97
2023-04-05T04:54:09.373Z,13.57
2023-04-05T04:59:12.435Z,13.17
2023-04-05T05:04:16.770Z,11.67
2023-04-05T05:09:22.535Z,16.03
2023-04-05T05:14:29.802Z,19.00
2023-04-05T05:19:32.790Z,17.27
2023-04-05T05:24:37.558Z,26.03
2023-04-05T05:29:41.482Z,14.17
2023-04-05T05:34:45.231Z,18.80
2023-04-05T05:39:52.343Z,18.97
2023-04-05T05:44:55.419Z,12.33
2023-04-05T05:49:58.985Z,19.77
2023-04-05T05:55:03.498Z,18.47
2023-04-05T06:00:09.815Z,14.30
2023-04-05T06:05:15.952Z,11.00
2023-04-05T06:10:20.928Z,13.87
2023-04-05T06:15:24.036Z,17.87
2023-04-05T06:20:27.130Z,19.30
2023-04-05T06:25:38.014Z,23.40
2023-04-05T06:30:41.223Z,16.97
2023-04-05T06:35:44.364Z,15.73
2023-04-05T06:40:51.743Z,18.43
2023-04-05T06:45:57.560Z,14.47
2023-04-05T06:51:02.361Z,11.40
2023-04-05T06:56:07.325Z,11.10
2023-04-05T07:01:11.515Z,17.70
2023-04-05T07:06:15.186Z,12.63
2023-04-05T07:11:19.664Z,9.10
2023-04-05T07:16:23.879Z,10.07
2023-04-05T07:21:27.156Z,9.33
2023-04-05T07:26:35.105Z,9.73
2023-04-05T07:31:41.714Z,11.20
2023-04-05T07:36:44.740Z,10.93
2023-04-05T07:41:49.322Z,10.43
2023-04-05T07:46:52.501Z,10.20
2023-04-05T07:51:56.843Z,15.67
2023-04-05T07:57:01.383Z,11.07
2023-04-05T08:02:13.795Z,7.63
2023-04-05T08:07:17.324Z,10.00
2023-04-05T08:12:21.844Z,9.60
2023-04-05T08:17:27.242Z,13.33
2023-04-05T08:22:31.989Z,8.13
2023-04-05T08:27:36.680Z,10.73
2023-04-05T08:32:40.154Z,7.37
2023-04-05T08:37:43.501Z,11.20
2023-04-05T08:42:57.283Z,6.50
2023-04-05T08:48:00.450Z,7.43
2023-04-05T08:53:03.589Z,10.90
2023-04-05T08:58:14.276Z,7.97
2023-04-05T09:03:19.840Z,7.60
2023-04-05T09:08:22.919Z,4.47
2023-04-05T09:13:27.428Z,5.17
2023-04-05T09:18:32.143Z,4.50
2023-04-05T09:23:35.795Z,4.57
2023-04-05T09:28:43.960Z,5.53
2023-04-05T09:33:47.952Z,9.73
2023-04-05T09:38:54.097Z,4.77
2023-04-05T09:43:58.546Z,5.27
2023-04-05T09:49:04.019Z,6.33
2023-04-05T09:54:08.383Z,5.67
2023-04-05T09:59:13.858Z,5.73
2023-04-05T10:04:18.917Z,5.50
2023-04-05T10:09:23.254Z,4.57
2023-04-05T10:14:27.839Z,5.47
2023-04-05T10:19:52.196Z,4.87
2023-04-05T10:25:01.138Z,6.53
2023-04-05T10:30:11.351Z,5.87
2023-04-05T10:35:18.515Z,4.63
2023-04-05T10:40:23.536Z,6.53
2023-04-05T10:45:29.471Z,6.30
2023-04-05T10:50:33.895Z,8.57
2023-04-05T10:55:40.565Z,7.83
2023-04-05T11:00:46.092Z,5.73
2023-04-05T11:05:49.447Z,6.03
2023-04-05T11:10:54.930Z,5.33
2023-04-05T11:16:11.734Z,4.83
2023-04-05T11:21:22.801Z,8.23
2023-04-05T11:26:32.162Z,6.43
2023-04-05T11:31:36.970Z,6.67
2023-04-05T11:36:46.013Z,6.87
2023-04-05T11:41:55.553Z,5.10
2023-04-05T11:47:00.050Z,5.07
2023-04-05T11:52:12.752Z,5.57
2023-04-05T11:57:17.465Z,6.37
2023-04-05T12:02:22.793Z,6.63
2023-04-05T12:07:29.742Z,8.73
2023-04-05T12:12:38.230Z,5.73
2023-04-05T12:17:47.781Z,7.07
2023-04-05T12:22:56.229Z,5.90
2023-04-05T12:28:05.876Z,6.20
2023-04-05T12:33:11.001Z,6.90
2023-04-05T12:38:17.670Z,6.93
2023-04-05T12:43:20.731Z,6.57
2023-04-05T12:48:26.271Z,9.63
2023-04-05T12:53:29.527Z,7.53
2023-04-05T12:58:37.342Z,7.80
2023-04-05T13:03:45.955Z,5.30
2023-04-05T13:08:52.821Z,8.13
2023-04-05T13:13:56.734Z,7.53
2023-04-05T13:19:01.159Z,5.17
2023-04-05T13:24:04.275Z,5.33
2023-04-05T13:29:08.437Z,8.07
2023-04-05T13:34:13.028Z,6.70
2023-04-05T13:39:16.116Z,8.00
2023-04-05T13:44:19.427Z,6.23
2023-04-05T13:49:23.943Z,9.03
2023-04-05T13:54:27.167Z,5.73
2023-04-05T13:59:30.356Z,8.60
2023-04-05T14:04:34.909Z,5.63
2023-04-05T14:09:38.010Z,5.93
2023-04-05T14:14:41.094Z,7.00
2023-04-05T14:19:45.632Z,5.93
2023-04-05T14:24:51.290Z,8.20
2023-04-05T14:29:57.125Z,8.75
2023-04-05T14:35:02.053Z,6.20
2023-04-05T14:40:05.796Z,6.65
2023-04-05T14:45:10.656Z,6.55
2023-04-05T14:50:15.951Z,5.80
2023-04-05T14:55:19.292Z,5.72
2023-04-05T15:00:25.158Z,7.03
2023-04-05T15:05:29.709Z,6.20
2023-04-05T15:10:32.874Z,6.43
2023-04-05T15:15:35.982Z,6.10
2023-04-05T15:20:40.461Z,6.97
2023-04-05T15:25:43.586Z,9.80
2023-04-05T15:30:46.848Z,6.83
2023-04-05T15:35:51.804Z,8.23
2023-04-05T15:40:57.007Z,7.38
2023-04-05T15:46:00.155Z,10.30
2023-04-05T15:51:05.098Z,7.50
2023-04-05T15:56:08.406Z,8.25
2023-04-05T16:01:14.629Z,7.25
2023-04-05T16:06:19.319Z,8.35
2023-04-05T16:11:23.030Z,8.00
2023-04-05T16:16:38.627Z,10.05
2023-04-05T16:21:53.864Z,7.88
2023-04-05T16:26:57.007Z,8.90
2023-04-05T16:32:00.735Z,7.10
2023-04-05T16:37:05.617Z,9.60
2023-04-05T16:42:09.097Z,8.30
2023-04-05T16:47:12.372Z,8.27
2023-04-05T16:52:16.965Z,8.57
2023-04-05T16:57:20.160Z,9.43
2023-04-05T17:02:23.590Z,11.03
2023-04-05T17:07:28.149Z,12.37
2023-04-05T17:12:31.714Z,10.73
2023-04-05T17:17:34.968Z,9.50
2023-04-05T17:22:40.016Z,9.23
2023-04-05T17:27:43.092Z,7.70
2023-04-05T17:32:46.289Z,9.10
2023-04-05T17:37:53.001Z,12.23
2023-04-05T17:42:56.119Z,9.40
2023-04-05T17:47:59.346Z,11.27
2023-04-05T17:53:04.687Z,11.03
2023-04-05T17:58:07.844Z,14.80
2023-04-05T18:03:13.216Z,13.17
2023-04-05T18:08:18.225Z,11.83
2023-04-05T18:13:21.805Z,9.83
2023-04-05T18:18:25.715Z,8.17
2023-04-05T18:23:30.667Z,10.03
2023-04-05T18:28:33.798Z,13.07
2023-04-05T18:33:37.885Z,10.00
2023-04-05T18:38:42.399Z,9.00
2023-04-05T18:43:46.123Z,8.33
2023-04-05T18:48:57.408Z,13.60
2023-04-05T18:54:02.918Z,9.43
2023-04-05T18:59:06.460Z,11.50
2023-04-05T19:04:10.530Z,12.93
2023-04-05T19:09:16.724Z,7.73
2023-04-05T19:14:20.135Z,12.80
2023-04-05T19:19:23.454Z,9.13
2023-04-05T19:24:28.983Z,9.23
2023-04-05T19:29:32.616Z,10.30
2023-04-05T19:34:38.277Z,11.00
2023-04-05T19:39:42.943Z,12.40
2023-04-05T19:44:54.925Z,9.27
2023-04-05T19:50:00.370Z,11.47
2023-04-05T19:55:27.061Z,10.37
2023-04-05T20:00:36.303Z,15.37
2023-04-05T20:06:04.942Z,15.23
2023-04-05T20:11:12.679Z,17.00
2023-04-05T20:16:17.231Z,14.30
2023-04-05T20:21:20.480Z,14.70
2023-04-05T20:26:28.321Z,17.63
2023-04-05T20:31:32.661Z,15.57
2023-04-05T20:36:38.162Z,13.43
2023-04-05T20:41:43.210Z,15.30
2023-04-05T20:46:46.754Z,14.40
2023-04-05T20:51:50.947Z,12.27
2023-04-05T20:56:55.782Z,13.73
2023-04-05T21:01:59.042Z,10.93
2023-04-05T21:07:02.533Z,10.67
2023-04-05T21:12:08.108Z,12.50
2023-04-05T21:17:11.528Z,11.80
2023-04-05T21:22:14.825Z,11.50
2023-04-05T21:27:19.658Z,12.17
2023-04-05T21:32:22.810Z,11.60
2023-04-05T21:37:27.704Z,14.23
2023-04-05T21:42:35.200Z,12.30
2023-04-05T21:47:38.599Z,15.57
2023-04-05T21:52:41.664Z,17.60
2023-04-05T21:57:46.254Z,14.33
2023-04-05T22:02:51.755Z,15.30
2023-04-05T22:07:55.047Z,16.73
2023-04-05T22:12:59.648Z,16.80
2023-04-05T22:18:04.001Z,11.47
2023-04-05T22:23:07.210Z,16.37
2023-04-05T22:28:11.836Z,12.13
2023-04-05T22:33:14.988Z,12.23
2023-04-05T22:38:18.898Z,11.30
2023-04-05T22:43:24.152Z,10.50
2023-04-05T22:48:27.715Z,11.07
2023-04-05T22:53:30.773Z,9.53
2023-04-05T22:58:35.442Z,10.27
2023-04-05T23:03:38.624Z,10.53
2023-04-05T23:08:41.876Z,9.83
2023-04-05T23:13:46.482Z,11.70
2023-04-05T23:18:50.750Z,10.37
2023-04-05T23:23:53.839Z,9.77
2023-04-05T23:28:59.041Z,10.03
2023-04-05T23:34:02.416Z,10.03
2023-04-05T23:39:05.444Z,11.33
2023-04-05T23:44:09.935Z,12.63
2023-04-05T23:49:13.027Z,12.17
2023-04-05T23:54:16.123Z,12.00
2023-04-05T23:59:20.977Z,12.23
